AUTO METAR SSNG 192240Z 11005KT OVC028 24/17 Q1017